createdAt,value
2023-02-07T00:00:42.311Z,22.40
2023-02-07T00:03:50.437Z,23.80
2023-02-07T00:06:58.395Z,25.10
2023-02-07T00:10:06.603Z,24.90
2023-02-07T00:13:14.704Z,27.10
2023-02-07T00:16:23.068Z,29.90
2023-02-07T00:19:31.215Z,25.30
2023-02-07T00:22:39.440Z,25.60
2023-02-07T00:25:47.969Z,25.80
2023-02-07T00:28:55.676Z,24.80
2023-02-07T00:32:04.340Z,24.30
2023-02-07T00:35:12.573Z,24.20
2023-02-07T00:38:20.240Z,24.90
2023-02-07T00:41:28.594Z,24.30
2023-02-07T00:44:36.482Z,22.90
2023-02-07T00:47:44.562Z,22.60
2023-02-07T00:50:53.105Z,23.20
2023-02-07T00:54:01.477Z,32.30
2023-02-07T00:57:09.473Z,31.60
2023-02-07T01:00:17.652Z,23.80
2023-02-07T01:03:25.718Z,27.60
2023-02-07T01:06:33.856Z,29.90
2023-02-07T01:09:42.369Z,27.40
2023-02-07T01:12:50.445Z,28.90
2023-02-07T01:15:58.562Z,33.60
2023-02-07T01:19:06.862Z,29.40
2023-02-07T01:22:14.960Z,32.10
2023-02-07T01:25:22.949Z,28.50
2023-02-07T01:28:30.894Z,30.20
2023-02-07T01:31:39.840Z,37.60
2023-02-07T01:34:47.764Z,38.40
2023-02-07T01:37:55.921Z,38.90
2023-02-07T01:41:03.932Z,40.00
2023-02-07T01:44:11.708Z,40.10
2023-02-07T01:47:19.950Z,38.80
2023-02-07T01:50:27.616Z,36.70
2023-02-07T01:53:36.104Z,41.30
2023-02-07T01:55:46.430Z,41.80
2023-02-07T01:58:46.513Z,40.30
2023-02-07T02:01:54.886Z,39.20
2023-02-07T02:05:03.179Z,38.40
2023-02-07T02:08:11.376Z,40.60
2023-02-07T02:11:19.446Z,40.90
2023-02-07T02:14:27.479Z,39.20
2023-02-07T02:17:35.756Z,35.10
2023-02-07T02:20:44.040Z,36.90
2023-02-07T02:23:52.305Z,35.10
2023-02-07T02:27:00.162Z,41.50
2023-02-07T02:30:08.531Z,39.90
2023-02-07T02:33:16.669Z,41.30
2023-02-07T02:36:24.599Z,42.30
2023-02-07T02:39:33.292Z,43.40
2023-02-07T02:42:41.820Z,40.10
2023-02-07T02:45:49.771Z,44.20
2023-02-07T02:48:58.562Z,36.50
2023-02-07T02:52:06.879Z,45.70
2023-02-07T02:55:14.924Z,43.00
2023-02-07T02:58:23.332Z,43.20
2023-02-07T03:01:31.095Z,54.20
2023-02-07T03:04:39.343Z,53.80
2023-02-07T03:07:47.293Z,60.10
2023-02-07T03:10:55.969Z,57.90
2023-02-07T03:14:03.938Z,59.20
2023-02-07T03:17:12.433Z,63.30
2023-02-07T03:20:21.018Z,61.80
2023-02-07T03:23:28.796Z,66.60
2023-02-07T03:26:37.398Z,66.50
2023-02-07T03:29:45.520Z,68.70
2023-02-07T03:32:53.757Z,72.40
2023-02-07T03:36:02.229Z,64.90
2023-02-07T03:39:10.278Z,69.50
2023-02-07T03:42:18.322Z,67.50
2023-02-07T03:45:26.678Z,67.20
2023-02-07T03:48:34.718Z,67.50
2023-02-07T03:51:42.915Z,71.80
2023-02-07T03:54:50.756Z,71.40
2023-02-07T03:57:59.218Z,70.40
2023-02-07T04:01:06.856Z,70.80
2023-02-07T04:04:15.705Z,71.40
2023-02-07T04:07:23.780Z,66.10
2023-02-07T04:10:31.948Z,67.30
2023-02-07T04:13:39.962Z,67.50
2023-02-07T04:16:48.188Z,67.80
2023-02-07T04:19:56.670Z,61.00
2023-02-07T04:23:05.090Z,64.70
2023-02-07T04:26:13.349Z,59.40
2023-02-07T04:29:21.840Z,71.60
2023-02-07T04:32:29.948Z,81.70
2023-02-07T04:35:38.457Z,81.40
2023-02-07T04:38:47.004Z,75.20
2023-02-07T04:41:54.760Z,72.50
2023-02-07T04:45:03.030Z,75.90
2023-02-07T04:48:11.545Z,79.60
2023-02-07T04:51:19.231Z,76.50
2023-02-07T04:54:27.490Z,79.70
2023-02-07T04:57:35.721Z,82.50
2023-02-07T05:00:44.050Z,82.70
2023-02-07T05:03:52.092Z,79.10
2023-02-07T05:07:00.212Z,75.20
2023-02-07T05:10:08.290Z,81.00
2023-02-07T05:13:17.038Z,83.50
2023-02-07T05:16:25.244Z,81.30
2023-02-07T05:19:33.364Z,73.90
2023-02-07T05:22:41.444Z,70.40
2023-02-07T05:25:49.927Z,72.20
2023-02-07T05:28:58.121Z,69.20
2023-02-07T05:32:06.985Z,70.10
2023-02-07T05:35:15.427Z,75.60
2023-02-07T05:38:23.588Z,78.20
2023-02-07T05:41:31.805Z,73.20
2023-02-07T05:44:40.240Z,67.60
2023-02-07T05:47:47.988Z,69.80
2023-02-07T05:50:56.100Z,67.40
2023-02-07T05:54:04.625Z,68.30
2023-02-07T05:57:12.379Z,63.00
2023-02-07T06:00:21.041Z,69.40
2023-02-07T06:03:29.802Z,72.20
2023-02-07T06:06:37.531Z,68.10
2023-02-07T06:09:45.880Z,68.50
2023-02-07T06:12:53.877Z,66.40
2023-02-07T06:16:02.248Z,67.40
2023-02-07T06:19:10.243Z,64.30
2023-02-07T06:22:18.355Z,70.90
2023-02-07T06:25:26.506Z,71.50
2023-02-07T06:28:34.946Z,64.20
2023-02-07T06:31:43.166Z,72.40
2023-02-07T06:34:51.160Z,69.40
2023-02-07T06:37:59.526Z,73.30
2023-02-07T06:41:07.564Z,70.70
2023-02-07T06:44:15.631Z,66.40
2023-02-07T06:47:23.545Z,66.90
2023-02-07T06:50:31.956Z,68.60
2023-02-07T06:53:40.071Z,67.30
2023-02-07T06:56:48.172Z,67.00
2023-02-07T06:59:56.532Z,63.20
2023-02-07T07:03:04.707Z,58.60
2023-02-07T07:06:12.461Z,63.90
2023-02-07T07:09:20.983Z,59.50
2023-02-07T07:12:29.087Z,60.90
2023-02-07T07:15:37.159Z,59.60
2023-02-07T07:18:45.953Z,63.40
2023-02-07T07:21:53.695Z,61.10
2023-02-07T07:25:01.698Z,61.00
2023-02-07T07:28:10.221Z,68.00
2023-02-07T07:31:18.051Z,68.20
2023-02-07T07:34:26.363Z,64.40
2023-02-07T07:37:34.812Z,63.10
2023-02-07T07:40:42.796Z,58.70
2023-02-07T07:43:50.844Z,56.10
2023-02-07T07:46:59.135Z,58.20
2023-02-07T07:50:07.278Z,60.90
2023-02-07T07:53:15.471Z,59.70
2023-02-07T07:56:23.535Z,67.10
2023-02-07T07:59:31.533Z,60.90
2023-02-07T08:02:39.614Z,66.60
2023-02-07T08:05:47.582Z,60.70
2023-02-07T08:08:56.191Z,61.40
2023-02-07T08:12:04.169Z,62.60
2023-02-07T08:15:12.130Z,62.60
2023-02-07T08:18:20.572Z,64.50
2023-02-07T08:21:28.827Z,72.60
2023-02-07T08:24:37.268Z,64.50
2023-02-07T08:27:45.816Z,69.00
2023-02-07T08:30:54.115Z,68.70
2023-02-07T08:34:02.249Z,65.60
2023-02-07T08:37:10.397Z,63.10
2023-02-07T08:40:18.082Z,58.50
2023-02-07T08:43:26.486Z,65.80
2023-02-07T08:46:34.470Z,65.90
2023-02-07T08:49:42.409Z,58.90
2023-02-07T08:52:50.879Z,60.00
2023-02-07T08:55:58.901Z,62.70
2023-02-07T08:59:07.062Z,63.80
2023-02-07T09:02:15.472Z,61.70
2023-02-07T09:05:23.128Z,60.50
2023-02-07T09:08:31.563Z,60.80
2023-02-07T09:11:40.173Z,60.80
2023-02-07T09:14:47.782Z,53.70
2023-02-07T09:17:56.314Z,56.10
2023-02-07T09:21:04.630Z,53.60
2023-02-07T09:24:12.312Z,59.10
2023-02-07T09:27:20.665Z,57.50
2023-02-07T09:30:28.690Z,53.30
2023-02-07T09:33:36.717Z,51.50
2023-02-07T09:36:45.050Z,47.20
2023-02-07T09:39:52.863Z,42.00
2023-02-07T09:43:01.121Z,44.60
2023-02-07T09:46:10.494Z,37.50
2023-02-07T09:49:18.729Z,38.90
2023-02-07T09:52:26.946Z,40.50
2023-02-07T09:55:35.287Z,42.30
2023-02-07T09:58:43.671Z,42.30
2023-02-07T10:01:51.547Z,45.20
2023-02-07T10:04:59.534Z,49.20
2023-02-07T10:08:07.715Z,50.10
2023-02-07T10:11:15.745Z,44.50
2023-02-07T10:14:23.614Z,47.10
2023-02-07T10:17:32.337Z,47.40
2023-02-07T10:20:41.147Z,44.70
2023-02-07T10:23:49.477Z,41.80
2023-02-07T10:26:58.105Z,44.20
2023-02-07T10:30:05.814Z,40.30
2023-02-07T10:33:14.211Z,36.90
2023-02-07T10:36:22.592Z,37.20
2023-02-07T10:39:30.265Z,26.50
2023-02-07T10:42:38.675Z,25.30
2023-02-07T10:45:51.912Z,25.80
2023-02-07T10:48:50.886Z,25.00
2023-02-07T10:51:59.288Z,29.30
2023-02-07T10:55:07.399Z,27.90
2023-02-07T10:58:22.852Z,31.50
2023-02-07T11:01:20.414Z,34.20
2023-02-07T11:04:28.647Z,31.00
2023-02-07T11:07:46.294Z,33.50
2023-02-07T11:10:42.412Z,27.90
2023-02-07T11:13:50.431Z,28.90
2023-02-07T11:16:58.378Z,28.30
2023-02-07T11:20:06.478Z,26.90
2023-02-07T11:23:14.829Z,24.10
2023-02-07T11:26:22.976Z,17.60
2023-02-07T11:29:31.013Z,21.10
2023-02-07T11:32:39.652Z,20.70
2023-02-07T11:35:47.691Z,18.70
2023-02-07T11:38:55.989Z,16.30
2023-02-07T11:42:04.394Z,18.10
2023-02-07T11:45:12.035Z,14.30
2023-02-07T11:48:20.049Z,15.80
2023-02-07T11:51:28.364Z,17.40
2023-02-07T11:54:36.406Z,17.70
2023-02-07T11:57:44.550Z,17.30
2023-02-07T12:00:52.522Z,18.10
2023-02-07T12:04:00.898Z,17.10
2023-02-07T12:07:09.003Z,20.90
2023-02-07T12:10:17.008Z,18.80
2023-02-07T12:13:25.690Z,19.80
2023-02-07T12:16:33.581Z,20.70
2023-02-07T12:19:41.766Z,17.00
2023-02-07T12:23:00.209Z,19.10
2023-02-07T12:25:55.755Z,20.50
2023-02-07T12:29:12.664Z,19.60
2023-02-07T12:32:09.100Z,19.20
2023-02-07T12:35:16.745Z,19.10
2023-02-07T12:38:25.293Z,20.60
2023-02-07T12:41:33.295Z,21.40
2023-02-07T12:44:41.418Z,18.70
2023-02-07T12:47:49.736Z,22.50
2023-02-07T12:50:57.358Z,20.70
2023-02-07T12:54:06.017Z,17.20
2023-02-07T12:57:14.458Z,18.90
2023-02-07T13:00:22.287Z,18.80
2023-02-07T13:03:30.755Z,15.80
2023-02-07T13:06:39.208Z,17.10
2023-02-07T13:09:46.938Z,19.50
2023-02-07T13:12:55.500Z,18.60
2023-02-07T13:16:03.710Z,20.70
2023-02-07T13:19:11.285Z,19.70
2023-02-07T13:22:19.991Z,20.50
2023-02-07T13:25:27.843Z,17.50
2023-02-07T13:28:35.880Z,18.30
2023-02-07T13:31:43.930Z,18.70
2023-02-07T13:34:51.678Z,18.50
2023-02-07T13:37:59.656Z,18.40
2023-02-07T13:41:07.572Z,18.50
2023-02-07T13:44:16.021Z,21.50
2023-02-07T13:47:24.287Z,22.50
2023-02-07T13:50:32.380Z,19.60
2023-02-07T13:53:40.609Z,19.70
2023-02-07T13:56:48.459Z,19.80
2023-02-07T13:59:56.671Z,19.20
2023-02-07T14:03:04.936Z,19.00
2023-02-07T14:06:12.570Z,22.00
2023-02-07T14:09:20.842Z,19.40
2023-02-07T14:12:29.133Z,17.70
2023-02-07T14:15:37.364Z,22.70
2023-02-07T14:18:46.191Z,27.10
2023-02-07T14:21:54.263Z,25.00
2023-02-07T14:25:02.152Z,24.20
2023-02-07T14:28:10.305Z,23.00
2023-02-07T14:31:18.514Z,26.70
2023-02-07T14:34:27.231Z,28.90
2023-02-07T14:37:35.383Z,27.10
2023-02-07T14:40:43.257Z,24.80
2023-02-07T14:44:03.300Z,26.10
2023-02-07T14:46:56.690Z,29.10
2023-02-07T14:50:05.096Z,30.40
2023-02-07T14:53:13.183Z,31.90
2023-02-07T14:56:21.147Z,32.50
2023-02-07T14:59:29.760Z,35.30
2023-02-07T15:02:37.439Z,37.10
2023-02-07T15:05:45.947Z,39.50
2023-02-07T15:08:54.402Z,40.20
2023-02-07T15:12:10.589Z,43.60
2023-02-07T15:15:07.421Z,50.10
2023-02-07T15:18:15.882Z,44.70
2023-02-07T15:21:23.748Z,46.60
2023-02-07T15:24:39.773Z,50.30
2023-02-07T15:27:37.337Z,51.60
2023-02-07T15:30:45.619Z,53.40
2023-02-07T15:33:54.262Z,56.50
2023-02-07T15:37:02.199Z,62.60
2023-02-07T15:40:10.448Z,63.00
2023-02-07T15:43:18.457Z,66.60
2023-02-07T15:46:27.000Z,69.60
2023-02-07T15:49:35.368Z,66.40
2023-02-07T15:52:43.222Z,72.30
2023-02-07T15:55:51.815Z,77.00
2023-02-07T15:58:59.917Z,78.00
2023-02-07T16:02:07.954Z,76.90
2023-02-07T16:05:16.385Z,78.20
2023-02-07T16:08:24.312Z,80.50
2023-02-07T16:11:32.947Z,84.40
2023-02-07T16:14:41.246Z,80.70
2023-02-07T16:17:49.138Z,82.30
2023-02-07T16:20:57.548Z,81.40
2023-02-07T16:24:05.881Z,86.80
2023-02-07T16:27:13.507Z,86.50
2023-02-07T16:30:24.071Z,87.80
2023-02-07T16:33:32.048Z,85.50
2023-02-07T16:36:40.126Z,81.90
2023-02-07T16:39:48.742Z,87.00
2023-02-07T16:42:56.640Z,85.60
2023-02-07T16:46:04.578Z,82.10
2023-02-07T16:49:12.478Z,82.60
2023-02-07T16:52:20.873Z,79.50
2023-02-07T16:55:28.943Z,83.80
2023-02-07T16:58:37.060Z,78.00
2023-02-07T17:01:45.990Z,82.60
2023-02-07T17:04:54.441Z,75.70
2023-02-07T17:08:02.874Z,83.30
2023-02-07T17:11:11.184Z,88.20
2023-02-07T17:14:19.385Z,93.90
2023-02-07T17:17:27.644Z,95.80
2023-02-07T17:20:36.190Z,93.40
2023-02-07T17:23:44.012Z,105.60
2023-02-07T17:26:52.513Z,99.00
2023-02-07T17:30:01.054Z,99.10
2023-02-07T17:33:08.670Z,107.40
2023-02-07T17:36:17.055Z,109.40
2023-02-07T17:39:25.377Z,104.40
2023-02-07T17:42:34.329Z,109.30
2023-02-07T17:45:42.481Z,116.30
2023-02-07T17:48:50.827Z,120.90
2023-02-07T17:51:58.400Z,119.00
2023-02-07T17:55:06.569Z,119.90
2023-02-07T17:58:14.807Z,114.50
2023-02-07T18:01:22.945Z,126.90
2023-02-07T18:04:31.228Z,122.80
2023-02-07T18:07:39.439Z,123.10
2023-02-07T18:10:47.271Z,127.50
2023-02-07T18:13:55.873Z,133.70
2023-02-07T18:17:04.034Z,128.20
2023-02-07T18:20:12.228Z,135.10
2023-02-07T18:23:20.636Z,125.40
2023-02-07T18:26:29.046Z,145.60
2023-02-07T18:29:36.840Z,126.10
2023-02-07T18:32:44.933Z,131.40
2023-02-07T18:35:53.960Z,145.80
2023-02-07T18:39:01.991Z,141.40
2023-02-07T18:42:10.590Z,136.90
2023-02-07T18:45:18.970Z,148.00
2023-02-07T18:48:27.070Z,154.50
2023-02-07T18:51:34.834Z,141.60
2023-02-07T18:54:43.361Z,151.20
2023-02-07T18:57:51.162Z,134.90
2023-02-07T19:00:59.696Z,136.40
2023-02-07T19:04:08.156Z,135.40
2023-02-07T19:07:16.144Z,129.40
2023-02-07T19:10:24.747Z,126.50
2023-02-07T19:13:33.326Z,132.70
2023-02-07T19:16:41.068Z,158.30
2023-02-07T19:19:49.497Z,137.60
2023-02-07T19:22:58.107Z,126.00
2023-02-07T19:26:06.040Z,136.70
2023-02-07T19:29:14.259Z,144.80
2023-02-07T19:32:22.387Z,134.10
2023-02-07T19:35:30.234Z,131.40
2023-02-07T19:38:38.336Z,143.30
2023-02-07T19:41:46.631Z,139.50
2023-02-07T19:44:54.312Z,143.80
2023-02-07T19:48:02.364Z,160.20
2023-02-07T19:51:10.252Z,171.60
2023-02-07T19:54:20.817Z,156.10
2023-02-07T19:57:28.567Z,156.20
2023-02-07T20:00:37.774Z,151.10
2023-02-07T20:03:46.068Z,154.50
2023-02-07T20:06:55.481Z,154.10
2023-02-07T20:10:05.163Z,158.70
2023-02-07T20:13:13.174Z,145.70
2023-02-07T20:16:21.088Z,169.40
2023-02-07T20:19:30.960Z,149.50
2023-02-07T20:22:39.788Z,164.00
2023-02-07T20:25:47.930Z,160.00
2023-02-07T20:28:56.653Z,161.30
2023-02-07T20:32:04.607Z,158.40
2023-02-07T20:35:13.343Z,156.00
2023-02-07T20:38:21.845Z,158.60
2023-02-07T20:41:29.910Z,173.70
2023-02-07T20:44:38.256Z,164.60
2023-02-07T20:47:46.186Z,161.30
2023-02-07T20:50:53.981Z,158.10
2023-02-07T20:54:02.811Z,157.50
2023-02-07T20:57:11.211Z,155.20
2023-02-07T21:00:18.988Z,159.90
2023-02-07T21:03:26.905Z,159.20
2023-02-07T21:06:34.568Z,162.10
2023-02-07T21:09:43.321Z,154.90
2023-02-07T21:12:51.906Z,153.00
2023-02-07T21:16:03.398Z,160.20
2023-02-07T21:19:01.025Z,153.30
2023-02-07T21:22:09.566Z,165.20
2023-02-07T21:25:17.769Z,153.40
2023-02-07T21:28:26.246Z,154.10
2023-02-07T21:31:35.836Z,161.60
2023-02-07T21:34:44.777Z,166.20
2023-02-07T21:37:52.793Z,150.60
2023-02-07T21:41:01.016Z,150.50
2023-02-07T21:44:09.810Z,161.50
2023-02-07T21:47:17.909Z,163.20
2023-02-07T21:50:25.997Z,158.70
2023-02-07T21:53:34.453Z,175.00
2023-02-07T21:56:42.494Z,159.60
2023-02-07T21:59:50.517Z,148.90
2023-02-07T22:02:58.694Z,160.80
2023-02-07T22:06:06.716Z,147.10
2023-02-07T22:09:14.787Z,146.80
2023-02-07T22:12:23.319Z,145.70
2023-02-07T22:15:32.637Z,144.20
2023-02-07T22:18:31.725Z,148.10
2023-02-07T22:21:40.188Z,151.40
2023-02-07T22:24:47.962Z,139.60
2023-02-07T22:27:56.465Z,141.80
2023-02-07T22:31:05.014Z,148.50
2023-02-07T22:34:13.227Z,152.70
2023-02-07T22:37:20.926Z,159.10
2023-02-07T22:40:29.063Z,149.30
2023-02-07T22:43:36.935Z,143.20
2023-02-07T22:46:45.250Z,138.60
2023-02-07T22:49:53.331Z,150.10
2023-02-07T22:53:01.589Z,159.50
2023-02-07T22:56:09.760Z,160.50
2023-02-07T22:59:17.973Z,140.30
2023-02-07T23:02:26.317Z,157.10
2023-02-07T23:05:34.060Z,153.90
2023-02-07T23:08:42.431Z,138.90
2023-02-07T23:11:50.423Z,152.10
2023-02-07T23:14:58.384Z,143.80
2023-02-07T23:18:06.535Z,145.50
2023-02-07T23:21:14.235Z,146.10
2023-02-07T23:24:22.787Z,150.70
2023-02-07T23:27:31.204Z,146.90
2023-02-07T23:30:39.223Z,148.70
2023-02-07T23:33:47.891Z,154.20
2023-02-07T23:36:56.204Z,139.30
2023-02-07T23:40:04.050Z,149.70
2023-02-07T23:43:12.664Z,145.10
2023-02-07T23:46:21.386Z,159.20
2023-02-07T23:49:29.236Z,150.00
2023-02-07T23:52:37.751Z,144.60
2023-02-07T23:55:45.625Z,139.60
2023-02-07T23:58:53.672Z,147.40
